createdAt,value
2018-08-07T00:00:13.234Z,0.00
2018-08-07T00:01:13.222Z,0.00
2018-08-07T00:02:13.225Z,0.00
2018-08-07T00:03:13.203Z,0.00
2018-08-07T00:04:13.193Z,0.00
2018-08-07T00:05:13.187Z,0.00
2018-08-07T00:06:13.177Z,0.00
2018-08-07T00:07:13.169Z,0.00
2018-08-07T00:08:13.158Z,0.00
2018-08-07T00:09:13.149Z,0.00
2018-08-07T00:10:13.176Z,0.00
2018-08-07T00:11:13.135Z,0.00
2018-08-07T00:12:13.123Z,0.00
2018-08-07T00:13:13.111Z,0.00
2018-08-07T00:14:13.102Z,0.00
2018-08-07T00:15:13.096Z,0.00
2018-08-07T00:16:13.088Z,0.00
2018-08-07T00:17:13.076Z,0.00
2018-08-07T00:18:13.067Z,0.00
2018-08-07T00:19:13.071Z,0.00
2018-08-07T00:20:13.047Z,0.00
2018-08-07T00:21:13.039Z,0.00
2018-08-07T00:22:13.031Z,0.00
2018-08-07T00:23:13.030Z,0.00
2018-08-07T00:24:13.012Z,0.00
2018-08-07T00:25:13.003Z,0.00
2018-08-07T00:26:12.995Z,0.00
2018-08-07T00:27:12.983Z,0.00
2018-08-07T00:28:12.976Z,0.00
2018-08-07T00:29:12.964Z,0.00
2018-08-07T00:30:12.957Z,0.00
2018-08-07T00:31:12.946Z,0.00
2018-08-07T00:32:12.938Z,0.00
2018-08-07T00:33:12.937Z,0.00
2018-08-07T00:34:12.921Z,0.00
2018-08-07T00:35:12.909Z,0.00
2018-08-07T00:36:12.914Z,0.00
2018-08-07T00:37:12.891Z,0.00
2018-08-07T00:38:12.881Z,0.00
2018-08-07T00:39:12.874Z,0.00
2018-08-07T00:40:12.861Z,0.00
2018-08-07T00:41:12.854Z,0.00
2018-08-07T00:42:12.845Z,0.00
2018-08-07T00:43:12.842Z,0.00
2018-08-07T00:44:12.830Z,0.00
2018-08-07T00:45:12.818Z,0.00
2018-08-07T00:46:12.808Z,0.00
2018-08-07T00:47:12.810Z,0.00
2018-08-07T00:48:12.799Z,0.00
2018-08-07T00:49:12.777Z,0.00
2018-08-07T00:50:12.770Z,0.00
2018-08-07T00:51:12.761Z,0.00
2018-08-07T00:52:12.754Z,0.00
2018-08-07T00:53:12.742Z,0.00
2018-08-07T00:54:12.738Z,0.00
2018-08-07T00:55:12.722Z,0.00
2018-08-07T00:56:12.713Z,0.00
2018-08-07T00:57:12.707Z,0.00
2018-08-07T00:58:12.693Z,0.00
2018-08-07T00:59:12.686Z,0.00
2018-08-07T01:00:12.676Z,0.00
2018-08-07T01:01:12.666Z,0.00
2018-08-07T01:02:12.656Z,0.00
2018-08-07T01:03:12.648Z,0.00
2018-08-07T01:04:12.637Z,0.00
2018-08-07T01:05:12.628Z,0.00
2018-08-07T01:06:12.622Z,0.00
2018-08-07T01:07:12.611Z,0.00
2018-08-07T01:08:12.601Z,0.00
2018-08-07T01:09:12.591Z,0.00
2018-08-07T01:10:12.582Z,0.00
2018-08-07T01:11:12.571Z,0.00
2018-08-07T01:12:12.563Z,0.00
2018-08-07T01:13:12.552Z,0.00
2018-08-07T01:14:12.545Z,0.00
2018-08-07T01:15:12.538Z,0.00
2018-08-07T01:16:12.525Z,0.00
2018-08-07T01:17:12.515Z,0.00
2018-08-07T01:18:12.506Z,0.00
2018-08-07T01:19:12.496Z,0.00
2018-08-07T01:20:12.485Z,0.00
2018-08-07T01:21:12.478Z,0.00
2018-08-07T01:22:12.464Z,0.00
2018-08-07T01:23:12.458Z,0.00
2018-08-07T01:24:12.446Z,0.00
2018-08-07T01:25:12.439Z,0.00
2018-08-07T01:26:12.433Z,0.00
2018-08-07T01:27:12.423Z,0.00
2018-08-07T01:28:12.407Z,0.00
2018-08-07T01:29:12.400Z,0.00
2018-08-07T01:30:12.391Z,0.00
2018-08-07T01:31:12.381Z,0.00
2018-08-07T01:32:12.370Z,0.00
2018-08-07T01:33:12.366Z,0.00
2018-08-07T01:34:12.352Z,0.00
2018-08-07T01:35:12.343Z,0.00
2018-08-07T01:36:12.332Z,0.00
2018-08-07T01:37:12.322Z,0.00
2018-08-07T01:38:12.314Z,0.00
2018-08-07T01:39:12.303Z,0.00
2018-08-07T01:40:12.299Z,0.00
2018-08-07T01:41:12.282Z,0.00
2018-08-07T01:42:12.277Z,0.00
2018-08-07T01:43:12.265Z,0.00
2018-08-07T01:44:12.258Z,0.00
2018-08-07T01:45:12.245Z,0.00
2018-08-07T01:46:12.234Z,0.00
2018-08-07T01:47:12.236Z,0.00
2018-08-07T01:48:12.217Z,0.00
2018-08-07T01:49:12.205Z,0.00
2018-08-07T01:50:12.197Z,0.00
2018-08-07T01:51:12.190Z,0.00
2018-08-07T01:52:12.181Z,0.00
2018-08-07T01:53:12.167Z,0.00
2018-08-07T01:54:12.157Z,0.00
2018-08-07T01:55:12.149Z,0.00
2018-08-07T01:56:12.136Z,0.00
2018-08-07T01:57:12.129Z,0.00
2018-08-07T01:58:12.118Z,0.00
2018-08-07T01:59:12.109Z,0.00
2018-08-07T02:00:12.098Z,0.00
2018-08-07T02:01:12.094Z,0.00
2018-08-07T02:02:12.079Z,0.00
2018-08-07T02:03:12.078Z,0.00
2018-08-07T02:04:12.064Z,0.00
2018-08-07T02:05:12.067Z,0.00
2018-08-07T02:06:12.043Z,0.00
2018-08-07T02:07:12.031Z,0.00
2018-08-07T02:08:12.025Z,0.00
2018-08-07T02:09:12.011Z,0.00
2018-08-07T02:10:12.002Z,0.00
2018-08-07T02:11:11.991Z,0.00
2018-08-07T02:12:11.978Z,0.00
2018-08-07T02:13:11.969Z,0.00
2018-08-07T02:14:11.959Z,0.00
2018-08-07T02:15:11.952Z,0.00
2018-08-07T02:16:11.944Z,0.00
2018-08-07T02:17:11.935Z,0.00
2018-08-07T02:18:11.922Z,0.00
2018-08-07T02:19:11.912Z,0.00
2018-08-07T02:20:11.902Z,0.00
2018-08-07T02:21:11.896Z,0.00
2018-08-07T02:22:11.880Z,0.00
2018-08-07T02:23:11.872Z,0.00
2018-08-07T02:24:11.861Z,0.00
2018-08-07T02:25:11.852Z,0.00
2018-08-07T02:26:11.841Z,0.00
2018-08-07T02:27:11.831Z,0.00
2018-08-07T02:28:11.864Z,0.00
2018-08-07T02:29:11.813Z,0.00
2018-08-07T02:30:11.814Z,0.00
2018-08-07T02:31:11.791Z,0.00
2018-08-07T02:32:11.784Z,0.00
2018-08-07T02:33:11.773Z,0.00
2018-08-07T02:34:11.765Z,0.00
2018-08-07T02:35:11.757Z,0.00
2018-08-07T02:36:11.749Z,0.00
2018-08-07T02:37:11.733Z,0.00
2018-08-07T02:38:11.720Z,0.00
2018-08-07T02:39:11.710Z,0.00
2018-08-07T02:40:11.704Z,0.00
2018-08-07T02:41:11.690Z,0.00
2018-08-07T02:42:11.680Z,0.00
2018-08-07T02:43:11.673Z,0.00
2018-08-07T02:44:11.658Z,0.00
2018-08-07T02:45:11.650Z,0.00
2018-08-07T02:46:11.640Z,0.00
2018-08-07T02:47:11.629Z,0.00
2018-08-07T02:48:11.620Z,0.00
2018-08-07T02:49:11.610Z,0.00
2018-08-07T02:50:11.597Z,0.00
2018-08-07T02:51:11.597Z,0.00
2018-08-07T02:52:11.578Z,0.00
2018-08-07T02:53:11.569Z,0.00
2018-08-07T02:54:11.562Z,0.00
2018-08-07T02:55:11.549Z,0.00
2018-08-07T02:56:11.540Z,0.00
2018-08-07T02:57:11.527Z,0.00
2018-08-07T02:58:11.518Z,0.00
2018-08-07T02:59:11.514Z,0.00
2018-08-07T03:00:11.506Z,0.00
2018-08-07T03:01:11.487Z,0.00
2018-08-07T03:02:11.477Z,0.00
2018-08-07T03:03:11.468Z,0.00
2018-08-07T03:04:11.457Z,0.00
2018-08-07T03:05:11.444Z,0.00
2018-08-07T03:06:11.438Z,0.00
2018-08-07T03:07:11.431Z,0.00
2018-08-07T03:08:11.432Z,0.00
2018-08-07T03:09:11.407Z,0.00
2018-08-07T03:10:11.401Z,0.00
2018-08-07T03:11:11.441Z,0.00
2018-08-07T03:12:11.375Z,0.00
2018-08-07T03:13:11.368Z,0.00
2018-08-07T03:14:11.354Z,0.00
2018-08-07T03:15:11.346Z,0.00
2018-08-07T03:16:11.334Z,0.00
2018-08-07T03:17:11.326Z,0.00
2018-08-07T03:18:11.314Z,0.00
2018-08-07T03:19:11.306Z,0.00
2018-08-07T03:20:11.295Z,0.00
2018-08-07T03:21:11.283Z,0.00
2018-08-07T03:22:11.280Z,0.00
2018-08-07T03:23:11.261Z,0.00
2018-08-07T03:24:11.255Z,0.00
2018-08-07T03:25:11.241Z,0.00
2018-08-07T03:26:11.238Z,0.00
2018-08-07T03:27:11.223Z,0.00
2018-08-07T03:28:11.211Z,0.00
2018-08-07T03:29:11.200Z,0.00
2018-08-07T03:30:11.194Z,0.00
2018-08-07T03:31:11.184Z,0.00
2018-08-07T03:32:11.167Z,0.00
2018-08-07T03:33:11.158Z,0.00
2018-08-07T03:34:11.152Z,0.00
2018-08-07T03:35:11.144Z,0.00
2018-08-07T03:36:11.129Z,0.00
2018-08-07T03:37:11.117Z,0.00
2018-08-07T03:38:11.107Z,0.00
2018-08-07T03:39:11.097Z,0.00
2018-08-07T03:40:11.089Z,0.00
2018-08-07T03:41:11.076Z,0.00
2018-08-07T03:42:11.065Z,0.00
2018-08-07T03:43:11.056Z,0.00
2018-08-07T03:44:11.044Z,0.00
2018-08-07T03:45:11.038Z,0.00
2018-08-07T03:46:11.023Z,0.00
2018-08-07T03:47:11.014Z,0.00
2018-08-07T03:48:11.002Z,0.00
2018-08-07T03:49:11.043Z,0.00
2018-08-07T03:50:10.981Z,0.00
2018-08-07T03:51:10.972Z,0.00
2018-08-07T03:52:10.961Z,0.00
2018-08-07T03:53:10.973Z,0.00
2018-08-07T03:54:10.940Z,0.00
2018-08-07T03:55:10.933Z,0.00
2018-08-07T03:56:10.920Z,0.00
2018-08-07T03:57:10.909Z,0.00
2018-08-07T03:58:10.899Z,0.00
2018-08-07T03:59:10.922Z,0.00
2018-08-07T04:00:10.879Z,0.00
2018-08-07T04:01:10.868Z,0.00
2018-08-07T04:02:10.856Z,0.00
2018-08-07T04:03:10.847Z,0.00
2018-08-07T04:04:10.839Z,0.00
2018-08-07T04:05:10.833Z,0.00
2018-08-07T04:06:10.817Z,0.00
2018-08-07T04:07:10.917Z,0.00
2018-08-07T04:08:10.792Z,5.63
2018-08-07T04:09:10.788Z,5.63
2018-08-07T04:10:10.774Z,5.63
2018-08-07T04:11:10.766Z,5.63
2018-08-07T04:12:10.757Z,5.63
2018-08-07T04:13:10.741Z,5.63
2018-08-07T04:14:10.735Z,5.63
2018-08-07T04:15:10.721Z,5.63
2018-08-07T04:16:10.714Z,5.63
2018-08-07T04:17:10.701Z,5.63
2018-08-07T04:18:10.695Z,5.63
2018-08-07T04:19:10.677Z,5.63
2018-08-07T04:20:10.667Z,5.63
2018-08-07T04:21:10.656Z,11.25
2018-08-07T04:22:10.648Z,11.25
2018-08-07T04:23:10.635Z,11.25
2018-08-07T04:24:10.627Z,11.25
2018-08-07T04:25:10.613Z,11.25
2018-08-07T04:26:10.690Z,11.25
2018-08-07T04:27:10.596Z,11.25
2018-08-07T04:28:10.581Z,11.25
2018-08-07T04:29:10.573Z,11.25
2018-08-07T04:30:10.559Z,16.88
2018-08-07T04:31:10.558Z,16.88
2018-08-07T04:32:10.538Z,16.88
2018-08-07T04:33:10.530Z,16.88
2018-08-07T04:34:10.520Z,16.88
2018-08-07T04:35:10.509Z,16.88
2018-08-07T04:36:10.507Z,16.88
2018-08-07T04:37:10.496Z,16.88
2018-08-07T04:38:10.474Z,16.88
2018-08-07T04:39:10.464Z,22.50
2018-08-07T04:40:10.452Z,22.50
2018-08-07T04:41:10.443Z,22.50
2018-08-07T04:42:10.431Z,22.50
2018-08-07T04:43:10.423Z,22.50
2018-08-07T04:44:10.421Z,22.50
2018-08-07T04:45:10.402Z,22.50
2018-08-07T04:46:10.391Z,28.13
2018-08-07T04:47:10.388Z,28.13
2018-08-07T04:48:10.367Z,28.13
2018-08-07T04:49:10.356Z,28.13
2018-08-07T04:50:10.351Z,28.13
2018-08-07T04:51:10.340Z,28.13
2018-08-07T04:52:10.326Z,28.13
2018-08-07T04:53:10.317Z,28.13
2018-08-07T04:54:10.305Z,33.75
2018-08-07T04:55:10.295Z,33.75
2018-08-07T04:56:10.283Z,33.75
2018-08-07T04:57:10.272Z,33.75
2018-08-07T04:58:10.361Z,33.75
2018-08-07T04:59:10.252Z,33.75
2018-08-07T05:00:10.242Z,33.75
2018-08-07T05:01:10.231Z,39.38
2018-08-07T05:02:10.221Z,39.38
2018-08-07T05:03:10.210Z,39.38
2018-08-07T05:04:10.199Z,39.38
2018-08-07T05:05:10.188Z,39.38
2018-08-07T05:06:10.179Z,39.38
2018-08-07T05:07:10.181Z,39.38
2018-08-07T05:08:10.157Z,45.00
2018-08-07T05:09:10.146Z,45.00
2018-08-07T05:10:10.137Z,45.00
2018-08-07T05:11:10.127Z,45.00
2018-08-07T05:12:10.115Z,45.00
2018-08-07T05:13:10.106Z,45.00
2018-08-07T05:14:10.157Z,45.00
2018-08-07T05:15:10.082Z,50.63
2018-08-07T05:16:10.139Z,50.63
2018-08-07T05:17:10.061Z,50.63
2018-08-07T05:18:10.053Z,50.63
2018-08-07T05:19:10.045Z,50.63
2018-08-07T05:20:10.031Z,50.63
2018-08-07T05:21:10.025Z,50.63
2018-08-07T05:22:10.017Z,56.25
2018-08-07T05:23:10.000Z,56.25
2018-08-07T05:24:09.989Z,56.25
2018-08-07T05:25:09.982Z,56.25
2018-08-07T05:26:09.968Z,56.25
2018-08-07T05:27:09.965Z,56.25
2018-08-07T05:28:09.955Z,61.88
2018-08-07T05:29:09.938Z,61.88
2018-08-07T05:30:09.929Z,61.88
2018-08-07T05:31:09.920Z,61.88
2018-08-07T05:32:09.906Z,61.88
2018-08-07T05:33:09.898Z,61.88
2018-08-07T05:34:09.886Z,61.88
2018-08-07T05:35:09.893Z,67.50
2018-08-07T05:36:09.864Z,67.50
2018-08-07T05:37:09.854Z,67.50
2018-08-07T05:38:09.848Z,67.50
2018-08-07T05:39:09.837Z,67.50
2018-08-07T05:40:09.824Z,67.50
2018-08-07T05:41:09.814Z,67.50
2018-08-07T05:42:09.808Z,73.13
2018-08-07T05:43:09.794Z,73.13
2018-08-07T05:44:09.783Z,73.13
2018-08-07T05:45:09.773Z,73.13
2018-08-07T05:46:09.763Z,73.13
2018-08-07T05:47:09.751Z,78.75
2018-08-07T05:48:09.745Z,78.75
2018-08-07T05:49:09.740Z,78.75
2018-08-07T05:50:09.790Z,78.75
2018-08-07T05:51:10.197Z,73.13
2018-08-07T05:52:09.703Z,73.13
2018-08-07T05:53:09.691Z,78.75
2018-08-07T05:54:09.681Z,78.75
2018-08-07T05:55:09.693Z,78.75
2018-08-07T05:56:09.662Z,78.75
2018-08-07T05:57:09.652Z,78.75
2018-08-07T05:58:09.640Z,78.75
2018-08-07T05:59:09.632Z,84.38
2018-08-07T06:00:09.629Z,84.38
2018-08-07T06:01:09.611Z,84.38
2018-08-07T06:02:09.602Z,84.38
2018-08-07T06:03:09.592Z,84.38
2018-08-07T06:04:09.580Z,84.38
2018-08-07T06:05:09.574Z,90.00
2018-08-07T06:06:09.565Z,90.00
2018-08-07T06:07:09.549Z,90.00
2018-08-07T06:08:09.542Z,90.00
2018-08-07T06:09:09.530Z,90.00
2018-08-07T06:10:09.526Z,90.00
2018-08-07T06:11:09.508Z,95.63
2018-08-07T06:12:09.498Z,95.63
2018-08-07T06:13:09.490Z,95.63
2018-08-07T06:14:09.479Z,95.63
2018-08-07T06:15:09.469Z,95.63
2018-08-07T06:16:09.459Z,95.63
2018-08-07T06:17:09.455Z,101.25
2018-08-07T06:18:09.437Z,101.25
2018-08-07T06:19:09.497Z,101.25
2018-08-07T06:20:09.418Z,101.25
2018-08-07T06:21:09.411Z,101.25
2018-08-07T06:22:09.397Z,106.88
2018-08-07T06:23:09.393Z,106.88
2018-08-07T06:24:09.376Z,106.88
2018-08-07T06:25:09.367Z,106.88
2018-08-07T06:26:09.362Z,106.88
2018-08-07T06:27:09.355Z,106.88
2018-08-07T06:28:09.337Z,106.88
2018-08-07T06:29:09.329Z,45.00
2018-08-07T06:30:09.320Z,16.88
2018-08-07T06:31:09.310Z,16.88
2018-08-07T06:32:09.299Z,16.88
2018-08-07T06:33:09.295Z,16.88
2018-08-07T06:34:09.284Z,16.88
2018-08-07T06:35:09.270Z,16.88
2018-08-07T06:36:09.259Z,16.88
2018-08-07T06:37:09.253Z,16.88
2018-08-07T06:38:09.243Z,16.88
2018-08-07T06:39:09.245Z,16.88
2018-08-07T06:40:09.218Z,16.88
2018-08-07T06:41:09.214Z,22.50
2018-08-07T06:42:09.202Z,22.50
2018-08-07T06:43:09.190Z,22.50
2018-08-07T06:44:09.183Z,22.50
2018-08-07T06:45:09.180Z,22.50
2018-08-07T06:46:09.162Z,22.50
2018-08-07T06:47:09.154Z,22.50
2018-08-07T06:48:09.169Z,22.50
2018-08-07T06:49:09.132Z,22.50
2018-08-07T06:50:09.157Z,22.50
2018-08-07T06:51:09.113Z,22.50
2018-08-07T06:52:09.104Z,22.50
2018-08-07T06:53:09.102Z,22.50
2018-08-07T06:54:09.088Z,22.50
2018-08-07T06:55:09.078Z,28.13
2018-08-07T06:56:09.067Z,28.13
2018-08-07T06:57:09.074Z,28.13
2018-08-07T06:58:09.047Z,28.13
2018-08-07T06:59:09.035Z,28.13
2018-08-07T07:00:09.026Z,28.13
2018-08-07T07:01:09.018Z,28.13
2018-08-07T07:02:09.005Z,28.13
2018-08-07T07:03:08.997Z,28.13
2018-08-07T07:04:08.989Z,28.13
2018-08-07T07:05:08.978Z,28.13
2018-08-07T07:06:08.971Z,28.13
2018-08-07T07:07:08.959Z,28.13
2018-08-07T07:08:08.949Z,28.13
2018-08-07T07:09:08.948Z,28.13
2018-08-07T07:10:08.932Z,28.13
2018-08-07T07:11:08.924Z,28.13
2018-08-07T07:12:08.924Z,28.13
2018-08-07T07:13:08.903Z,28.13
2018-08-07T07:14:08.893Z,28.13
2018-08-07T07:15:08.887Z,28.13
2018-08-07T07:16:08.889Z,28.13
2018-08-07T07:17:08.868Z,28.13
2018-08-07T07:18:08.862Z,28.13
2018-08-07T07:19:08.853Z,28.13
2018-08-07T07:20:08.843Z,28.13
2018-08-07T07:21:08.833Z,33.75
2018-08-07T07:22:08.823Z,33.75
2018-08-07T07:23:08.813Z,33.75
2018-08-07T07:24:08.802Z,33.75
2018-08-07T07:25:08.798Z,33.75
2018-08-07T07:26:08.788Z,33.75
2018-08-07T07:27:08.784Z,33.75
2018-08-07T07:28:08.768Z,33.75
2018-08-07T07:29:08.757Z,33.75
2018-08-07T07:30:08.751Z,33.75
2018-08-07T07:31:08.741Z,33.75
2018-08-07T07:32:08.734Z,33.75
2018-08-07T07:33:08.723Z,33.75
2018-08-07T07:34:08.765Z,33.75
2018-08-07T07:35:08.709Z,39.38
2018-08-07T07:36:08.704Z,39.38
2018-08-07T07:37:08.820Z,39.38
2018-08-07T07:38:08.681Z,39.38
2018-08-07T07:39:08.679Z,39.38
2018-08-07T07:40:08.664Z,39.38
2018-08-07T07:41:08.657Z,39.38
2018-08-07T07:42:08.652Z,39.38
2018-08-07T07:43:08.648Z,39.38
2018-08-07T07:44:08.632Z,39.38
2018-08-07T07:45:08.622Z,39.38
2018-08-07T07:46:08.634Z,39.38
2018-08-07T07:47:08.673Z,39.38
2018-08-07T07:48:08.598Z,39.38
2018-08-07T07:49:08.592Z,45.00
2018-08-07T07:50:08.591Z,45.00
2018-08-07T07:51:08.578Z,45.00
2018-08-07T07:52:08.573Z,45.00
2018-08-07T07:53:08.559Z,45.00
2018-08-07T07:54:08.683Z,45.00
2018-08-07T07:55:08.542Z,45.00
2018-08-07T07:56:08.532Z,45.00
2018-08-07T07:57:08.526Z,45.00
2018-08-07T07:58:08.526Z,45.00
2018-08-07T07:59:08.512Z,45.00
2018-08-07T08:00:08.502Z,45.00
2018-08-07T08:01:08.500Z,45.00
2018-08-07T08:02:08.496Z,45.00
2018-08-07T08:03:08.483Z,45.00
2018-08-07T08:04:08.476Z,45.00
2018-08-07T08:05:08.474Z,45.00
2018-08-07T08:06:08.568Z,45.00
2018-08-07T08:07:08.453Z,45.00
2018-08-07T08:08:08.451Z,45.00
2018-08-07T08:09:08.438Z,45.00
2018-08-07T08:10:08.427Z,45.00
2018-08-07T08:11:08.469Z,45.00
2018-08-07T08:12:08.419Z,45.00
2018-08-07T08:13:08.409Z,45.00
2018-08-07T08:14:08.399Z,45.00
2018-08-07T08:15:08.393Z,45.00
2018-08-07T08:16:08.383Z,45.00
2018-08-07T08:17:08.379Z,45.00
2018-08-07T08:18:08.371Z,45.00
2018-08-07T08:19:08.365Z,45.00
2018-08-07T08:20:08.360Z,45.00
2018-08-07T08:21:08.352Z,45.00
2018-08-07T08:22:08.343Z,50.63
2018-08-07T08:23:08.336Z,50.63
2018-08-07T08:24:08.327Z,50.63
2018-08-07T08:25:08.324Z,50.63
2018-08-07T08:26:08.329Z,50.63
2018-08-07T08:27:08.308Z,50.63
2018-08-07T08:28:08.301Z,50.63
2018-08-07T08:29:08.359Z,50.63
2018-08-07T08:30:08.354Z,50.63
2018-08-07T08:31:08.281Z,50.63
2018-08-07T08:32:08.275Z,50.63
2018-08-07T08:33:08.269Z,50.63
2018-08-07T08:34:08.263Z,50.63
2018-08-07T08:35:08.331Z,50.63
2018-08-07T08:36:08.250Z,50.63
2018-08-07T08:37:08.246Z,50.63
2018-08-07T08:38:08.237Z,50.63
2018-08-07T08:39:08.233Z,56.25
2018-08-07T08:40:08.224Z,56.25
2018-08-07T08:41:08.215Z,56.25
2018-08-07T08:42:08.212Z,56.25
2018-08-07T08:43:08.206Z,56.25
2018-08-07T08:44:08.201Z,56.25
2018-08-07T08:45:08.192Z,56.25
2018-08-07T08:46:08.186Z,56.25
2018-08-07T08:47:08.183Z,56.25
2018-08-07T08:48:08.181Z,56.25
2018-08-07T08:49:08.170Z,56.25
2018-08-07T08:50:08.164Z,56.25
2018-08-07T08:51:08.156Z,56.25
2018-08-07T08:52:08.151Z,56.25
2018-08-07T08:53:08.156Z,56.25
2018-08-07T08:54:08.180Z,56.25
2018-08-07T08:55:08.135Z,61.88
2018-08-07T08:56:08.130Z,61.88
2018-08-07T08:57:08.121Z,61.88
2018-08-07T08:58:08.116Z,61.88
2018-08-07T08:59:08.112Z,61.88
2018-08-07T09:00:08.102Z,61.88
2018-08-07T09:01:08.102Z,61.88
2018-08-07T09:02:08.093Z,61.88
2018-08-07T09:03:08.086Z,61.88
2018-08-07T09:04:08.085Z,61.88
2018-08-07T09:05:08.077Z,61.88
2018-08-07T09:06:08.074Z,61.88
2018-08-07T09:07:08.074Z,61.88
2018-08-07T09:08:08.069Z,61.88
2018-08-07T09:09:08.058Z,61.88
2018-08-07T09:10:08.060Z,61.88
2018-08-07T09:11:08.054Z,61.88
2018-08-07T09:12:08.039Z,61.88
2018-08-07T09:13:08.039Z,61.88
2018-08-07T09:14:08.031Z,61.88
2018-08-07T09:15:08.029Z,61.88
2018-08-07T09:16:08.022Z,61.88
2018-08-07T09:17:08.028Z,61.88
2018-08-07T09:18:08.021Z,61.88
2018-08-07T09:19:08.007Z,61.88
2018-08-07T09:20:08.004Z,61.88
2018-08-07T09:21:07.998Z,61.88
2018-08-07T09:22:07.993Z,61.88
2018-08-07T09:23:07.990Z,61.88
2018-08-07T09:24:07.984Z,61.88
2018-08-07T09:25:07.978Z,67.50
2018-08-07T09:26:08.078Z,67.50
2018-08-07T09:27:07.971Z,67.50
2018-08-07T09:28:07.969Z,67.50
2018-08-07T09:29:07.966Z,67.50
2018-08-07T09:30:07.960Z,67.50
2018-08-07T09:31:07.952Z,67.50
2018-08-07T09:32:07.954Z,67.50
2018-08-07T09:33:07.946Z,67.50
2018-08-07T09:34:07.945Z,67.50
2018-08-07T09:35:07.938Z,67.50
2018-08-07T09:36:07.944Z,67.50
2018-08-07T09:37:07.930Z,67.50
2018-08-07T09:38:07.926Z,67.50
2018-08-07T09:39:07.921Z,67.50
2018-08-07T09:40:07.953Z,67.50
2018-08-07T09:41:07.913Z,67.50
2018-08-07T09:42:07.910Z,67.50
2018-08-07T09:43:07.906Z,67.50
2018-08-07T09:44:07.902Z,67.50
2018-08-07T09:45:07.900Z,73.13
2018-08-07T09:46:07.894Z,73.13
2018-08-07T09:47:07.894Z,73.13
2018-08-07T09:48:07.887Z,73.13
2018-08-07T09:49:07.882Z,73.13
2018-08-07T09:50:07.906Z,73.13
2018-08-07T09:51:07.876Z,73.13
2018-08-07T09:52:07.873Z,73.13
2018-08-07T09:53:07.878Z,73.13
2018-08-07T09:54:07.866Z,73.13
2018-08-07T09:55:07.861Z,73.13
2018-08-07T09:56:07.856Z,73.13
2018-08-07T09:57:07.856Z,73.13
2018-08-07T09:58:07.856Z,73.13
2018-08-07T09:59:07.849Z,73.13
2018-08-07T10:00:07.845Z,73.13
2018-08-07T10:01:07.843Z,73.13
2018-08-07T10:02:07.838Z,73.13
2018-08-07T10:03:07.835Z,73.13
2018-08-07T10:04:07.830Z,73.13
2018-08-07T10:05:07.838Z,73.13
2018-08-07T10:06:07.825Z,73.13
2018-08-07T10:07:07.821Z,73.13
2018-08-07T10:08:07.825Z,73.13
2018-08-07T10:09:07.815Z,73.13
2018-08-07T10:10:07.812Z,73.13
2018-08-07T10:11:07.810Z,78.75
2018-08-07T10:12:07.807Z,78.75
2018-08-07T10:13:07.803Z,78.75
2018-08-07T10:14:07.805Z,78.75
2018-08-07T10:15:07.807Z,78.75
2018-08-07T10:16:07.795Z,84.38
2018-08-07T10:17:07.794Z,84.38
2018-08-07T10:18:07.790Z,90.00
2018-08-07T10:19:07.788Z,90.00
2018-08-07T10:20:07.790Z,95.63
2018-08-07T10:21:07.783Z,95.63
2018-08-07T10:22:07.781Z,101.25
2018-08-07T10:23:07.847Z,101.25
2018-08-07T10:24:07.774Z,101.25
2018-08-07T10:25:07.776Z,101.25
2018-08-07T10:26:07.767Z,101.25
2018-08-07T10:27:07.767Z,101.25
2018-08-07T10:28:07.767Z,101.25
2018-08-07T10:29:07.770Z,101.25
2018-08-07T10:30:07.768Z,101.25
2018-08-07T10:31:07.758Z,101.25
2018-08-07T10:32:07.757Z,95.63
2018-08-07T10:33:07.765Z,95.63
2018-08-07T10:34:07.761Z,90.00
2018-08-07T10:35:07.824Z,90.00
2018-08-07T10:36:07.751Z,84.38
2018-08-07T10:37:07.744Z,84.38
2018-08-07T10:38:07.746Z,84.38
2018-08-07T10:39:07.755Z,84.38
2018-08-07T10:40:07.739Z,78.75
2018-08-07T10:41:07.816Z,78.75
2018-08-07T10:42:07.737Z,78.75
2018-08-07T10:43:07.896Z,78.75
2018-08-07T10:44:07.791Z,78.75
2018-08-07T10:45:07.732Z,78.75
2018-08-07T10:46:07.731Z,78.75
2018-08-07T10:47:07.727Z,78.75
2018-08-07T10:48:07.724Z,78.75
2018-08-07T10:49:07.732Z,78.75
2018-08-07T10:50:07.722Z,78.75
2018-08-07T10:51:07.719Z,78.75
2018-08-07T10:52:07.763Z,78.75
2018-08-07T10:53:07.718Z,78.75
2018-08-07T10:54:07.716Z,78.75
2018-08-07T10:55:07.716Z,78.75
2018-08-07T10:56:07.711Z,78.75
2018-08-07T10:57:07.708Z,78.75
2018-08-07T10:58:07.711Z,78.75
2018-08-07T10:59:07.708Z,78.75
2018-08-07T11:00:07.718Z,78.75
2018-08-07T11:01:07.705Z,78.75
2018-08-07T11:02:07.702Z,78.75
2018-08-07T11:03:07.712Z,78.75
2018-08-07T11:04:07.699Z,78.75
2018-08-07T11:05:07.700Z,78.75
2018-08-07T11:06:07.703Z,78.75
2018-08-07T11:07:07.696Z,73.13
2018-08-07T11:08:07.698Z,73.13
2018-08-07T11:09:07.695Z,78.75
2018-08-07T11:10:07.704Z,78.75
2018-08-07T11:11:07.690Z,78.75
2018-08-07T11:12:07.687Z,78.75
2018-08-07T11:13:07.689Z,78.75
2018-08-07T11:14:07.684Z,78.75
2018-08-07T11:15:07.683Z,78.75
2018-08-07T11:16:07.686Z,78.75
2018-08-07T11:17:07.681Z,78.75
2018-08-07T11:18:07.680Z,84.38
2018-08-07T11:19:07.677Z,84.38
2018-08-07T11:20:07.676Z,84.38
2018-08-07T11:21:07.673Z,84.38
2018-08-07T11:22:07.677Z,84.38
2018-08-07T11:23:07.687Z,84.38
2018-08-07T11:24:07.674Z,84.38
2018-08-07T11:25:07.669Z,84.38
2018-08-07T11:26:07.672Z,84.38
2018-08-07T11:27:07.669Z,84.38
2018-08-07T11:28:07.667Z,84.38
2018-08-07T11:29:07.664Z,84.38
2018-08-07T11:30:07.661Z,84.38
2018-08-07T11:31:07.661Z,84.38
2018-08-07T11:32:07.659Z,84.38
2018-08-07T11:33:07.663Z,84.38
2018-08-07T11:34:07.656Z,84.38
2018-08-07T11:35:07.660Z,84.38
2018-08-07T11:36:07.655Z,84.38
2018-08-07T11:37:07.653Z,84.38
2018-08-07T11:38:07.656Z,84.38
2018-08-07T11:39:07.656Z,84.38
2018-08-07T11:40:07.650Z,84.38
2018-08-07T11:41:07.653Z,84.38
2018-08-07T11:42:07.650Z,84.38
2018-08-07T11:43:07.649Z,84.38
2018-08-07T11:44:07.650Z,90.00
2018-08-07T11:45:07.645Z,90.00
2018-08-07T11:46:07.651Z,90.00
2018-08-07T11:47:07.699Z,90.00
2018-08-07T11:48:07.651Z,90.00
2018-08-07T11:49:07.643Z,90.00
2018-08-07T11:50:07.644Z,90.00
2018-08-07T11:51:07.645Z,90.00
2018-08-07T11:52:07.639Z,90.00
2018-08-07T11:53:07.640Z,84.38
2018-08-07T11:54:07.645Z,90.00
2018-08-07T11:55:07.639Z,90.00
2018-08-07T11:56:07.640Z,90.00
2018-08-07T11:57:07.642Z,90.00
2018-08-07T11:58:07.654Z,90.00
2018-08-07T11:59:07.638Z,90.00
2018-08-07T12:00:07.636Z,90.00
2018-08-07T12:01:07.646Z,90.00
2018-08-07T12:02:07.643Z,90.00
2018-08-07T12:03:07.650Z,90.00
2018-08-07T12:04:07.635Z,90.00
2018-08-07T12:05:07.643Z,90.00
2018-08-07T12:06:07.637Z,90.00
2018-08-07T12:07:07.652Z,90.00
2018-08-07T12:08:07.789Z,90.00
2018-08-07T12:09:07.635Z,90.00
2018-08-07T12:10:07.633Z,90.00
2018-08-07T12:11:07.636Z,90.00
2018-08-07T12:12:07.633Z,90.00
2018-08-07T12:13:07.639Z,90.00
2018-08-07T12:14:07.636Z,90.00
2018-08-07T12:15:07.635Z,84.38
2018-08-07T12:16:07.639Z,90.00
2018-08-07T12:17:07.649Z,90.00
2018-08-07T12:18:07.636Z,90.00
2018-08-07T12:19:07.632Z,90.00
2018-08-07T12:20:07.631Z,90.00
2018-08-07T12:21:07.636Z,90.00
2018-08-07T12:22:07.637Z,90.00
2018-08-07T12:23:07.638Z,90.00
2018-08-07T12:24:07.631Z,90.00
2018-08-07T12:25:07.632Z,90.00
2018-08-07T12:26:07.631Z,90.00
2018-08-07T12:27:07.630Z,90.00
2018-08-07T12:28:07.631Z,90.00
2018-08-07T12:29:07.630Z,90.00
2018-08-07T12:30:07.632Z,90.00
2018-08-07T12:31:07.638Z,90.00
2018-08-07T12:32:07.634Z,90.00
2018-08-07T12:33:07.643Z,90.00
2018-08-07T12:34:07.632Z,95.63
2018-08-07T12:35:07.750Z,90.00
2018-08-07T12:36:07.641Z,90.00
2018-08-07T12:37:07.634Z,90.00
2018-08-07T12:38:07.633Z,90.00
2018-08-07T12:39:07.632Z,90.00
2018-08-07T12:40:07.635Z,90.00
2018-08-07T12:41:07.662Z,90.00
2018-08-07T12:42:07.635Z,90.00
2018-08-07T12:43:07.643Z,90.00
2018-08-07T12:44:07.633Z,84.38
2018-08-07T12:45:07.643Z,84.38
2018-08-07T12:46:07.642Z,84.38
2018-08-07T12:47:07.637Z,84.38
2018-08-07T12:48:07.635Z,84.38
2018-08-07T12:49:07.638Z,84.38
2018-08-07T12:50:07.636Z,90.00
2018-08-07T12:51:07.637Z,90.00
2018-08-07T12:52:07.634Z,90.00
2018-08-07T12:53:07.645Z,84.38
2018-08-07T12:54:07.639Z,90.00
2018-08-07T12:55:07.636Z,90.00
2018-08-07T12:56:07.639Z,90.00
2018-08-07T12:57:07.636Z,90.00
2018-08-07T12:58:07.645Z,90.00
2018-08-07T12:59:07.638Z,90.00
2018-08-07T13:00:07.638Z,90.00